createdAt,value
2023-02-08T00:01:23.284Z,4.32
2023-02-08T00:03:51.313Z,5.35
2023-02-08T00:06:19.941Z,4.80
2023-02-08T00:08:47.823Z,4.72
2023-02-08T00:11:15.694Z,4.93
2023-02-08T00:13:43.573Z,4.60
2023-02-08T00:16:13.768Z,4.90
2023-02-08T00:18:42.449Z,4.30
2023-02-08T00:21:16.457Z,5.13
2023-02-08T00:23:44.627Z,4.63
2023-02-08T00:26:12.767Z,5.00
2023-02-08T00:28:42.110Z,4.80
2023-02-08T00:31:10.014Z,5.10
2023-02-08T00:33:38.059Z,4.72
2023-02-08T00:36:08.604Z,4.65
2023-02-08T00:38:37.022Z,4.50
2023-02-08T00:41:05.740Z,4.40
2023-02-08T00:43:34.633Z,4.65
2023-02-08T00:46:04.109Z,4.93
2023-02-08T00:48:32.782Z,5.30
2023-02-08T00:51:06.951Z,4.95
2023-02-08T00:53:39.779Z,5.13
2023-02-08T00:56:09.231Z,4.60
2023-02-08T00:58:38.225Z,4.97
2023-02-08T01:01:07.316Z,4.72
2023-02-08T01:03:38.145Z,4.47
2023-02-08T01:06:09.301Z,4.50
2023-02-08T01:08:37.215Z,4.35
2023-02-08T01:11:08.381Z,4.70
2023-02-08T01:13:38.007Z,4.35
2023-02-08T01:16:11.931Z,4.72
2023-02-08T01:18:41.447Z,4.43
2023-02-08T01:21:13.046Z,5.13
2023-02-08T01:23:43.197Z,4.75
2023-02-08T01:26:12.894Z,4.07
2023-02-08T01:28:41.532Z,5.20
2023-02-08T01:31:18.853Z,4.40
2023-02-08T01:33:47.349Z,4.63
2023-02-08T01:36:16.642Z,4.70
2023-02-08T01:38:45.303Z,4.90
2023-02-08T01:41:44.441Z,4.68
2023-02-08T01:44:12.316Z,4.53
2023-02-08T01:46:45.218Z,5.10
2023-02-08T01:49:18.578Z,4.50
2023-02-08T01:51:52.917Z,5.20
2023-02-08T01:54:24.086Z,5.30
2023-02-08T01:56:53.282Z,4.60
2023-02-08T01:59:38.926Z,5.18
2023-02-08T02:02:11.486Z,4.95
2023-02-08T02:04:39.966Z,4.75
2023-02-08T02:07:08.180Z,4.57
2023-02-08T02:09:52.970Z,4.82
2023-02-08T02:12:21.679Z,4.50
2023-02-08T02:14:51.613Z,4.90
2023-02-08T02:17:20.857Z,4.80
2023-02-08T02:20:05.365Z,5.30
2023-02-08T02:22:42.261Z,5.03
2023-02-08T02:25:12.889Z,4.55
2023-02-08T02:28:11.394Z,4.75
2023-02-08T02:31:16.537Z,4.80
2023-02-08T02:34:00.462Z,4.75
2023-02-08T02:36:53.457Z,4.97
2023-02-08T02:39:41.745Z,4.85
2023-02-08T02:42:55.544Z,4.93
2023-02-08T02:45:36.477Z,4.55
2023-02-08T02:48:17.387Z,4.88
2023-02-08T02:50:56.960Z,5.13
2023-02-08T02:53:58.936Z,4.80
2023-02-08T02:56:39.326Z,5.10
2023-02-08T02:59:10.281Z,4.70
2023-02-08T03:01:39.577Z,4.68
2023-02-08T03:04:37.992Z,4.57
2023-02-08T03:07:20.461Z,4.97
2023-02-08T03:09:54.110Z,4.85
2023-02-08T03:12:52.999Z,5.18
2023-02-08T03:15:44.810Z,5.10
2023-02-08T03:18:18.776Z,4.82
2023-02-08T03:21:00.779Z,5.18
2023-02-08T03:23:32.017Z,5.03
2023-02-08T03:26:11.037Z,5.13
2023-02-08T03:28:59.389Z,5.32
2023-02-08T03:31:54.131Z,5.70
2023-02-08T03:34:34.214Z,5.10
2023-02-08T03:37:31.132Z,4.95
2023-02-08T03:40:21.197Z,4.93
2023-02-08T03:42:52.153Z,5.25
2023-02-08T03:45:35.300Z,5.75
2023-02-08T03:48:06.883Z,5.82
2023-02-08T03:50:38.875Z,5.28
2023-02-08T03:53:09.508Z,5.25
2023-02-08T03:55:39.190Z,5.65
2023-02-08T03:58:18.913Z,5.50
2023-02-08T04:00:54.861Z,5.15
2023-02-08T04:03:28.668Z,5.57
2023-02-08T04:08:24.739Z,5.22
2023-02-08T04:10:52.912Z,5.15
2023-02-08T04:13:20.801Z,5.55
2023-02-08T04:15:48.754Z,5.60
2023-02-08T04:18:16.612Z,5.78
2023-02-08T04:20:44.415Z,5.40
2023-02-08T04:23:12.161Z,5.10
2023-02-08T04:25:40.318Z,5.57
2023-02-08T04:28:08.317Z,5.78
2023-02-08T04:30:36.778Z,5.53
2023-02-08T04:33:05.058Z,5.45
2023-02-08T04:35:33.869Z,5.43
2023-02-08T04:38:02.069Z,5.78
2023-02-08T04:40:31.224Z,5.55
2023-02-08T04:42:59.615Z,5.10
2023-02-08T04:45:30.240Z,5.70
2023-02-08T04:48:01.162Z,5.45
2023-02-08T04:50:29.635Z,5.40
2023-02-08T04:52:58.057Z,5.43
2023-02-08T04:55:26.450Z,5.40
2023-02-08T04:57:54.769Z,5.40
2023-02-08T05:00:23.523Z,5.90
2023-02-08T05:02:56.112Z,5.20
2023-02-08T05:05:28.728Z,5.45
2023-02-08T05:07:57.275Z,5.15
2023-02-08T05:10:26.830Z,5.95
2023-02-08T05:12:55.304Z,5.63
2023-02-08T05:15:24.193Z,5.53
2023-02-08T05:17:52.706Z,4.90
2023-02-08T05:20:21.895Z,5.43
2023-02-08T05:22:50.675Z,5.20
2023-02-08T05:25:19.136Z,5.28
2023-02-08T05:27:47.876Z,5.10
2023-02-08T05:30:16.401Z,5.05
2023-02-08T05:32:44.943Z,5.25
2023-02-08T05:35:13.493Z,5.10
2023-02-08T05:37:41.781Z,5.32
2023-02-08T05:40:11.524Z,5.45
2023-02-08T05:42:40.435Z,4.47
2023-02-08T05:45:09.262Z,4.88
2023-02-08T05:47:37.878Z,4.75
2023-02-08T05:50:06.529Z,4.90
2023-02-08T05:52:34.794Z,5.07
2023-02-08T05:55:03.260Z,4.95
2023-02-08T05:57:34.297Z,4.95
2023-02-08T06:00:06.467Z,4.97
2023-02-08T06:02:44.554Z,6.35
2023-02-08T06:05:13.190Z,6.47
2023-02-08T06:07:41.813Z,6.78
2023-02-08T06:10:11.644Z,7.32
2023-02-08T06:12:40.332Z,7.15
2023-02-08T06:15:08.829Z,6.80
2023-02-08T06:17:37.116Z,6.93
2023-02-08T06:20:06.692Z,11.10
2023-02-08T06:22:36.289Z,12.25
2023-02-08T06:25:05.600Z,13.30
2023-02-08T06:27:34.115Z,10.68
2023-02-08T06:30:02.695Z,10.25
2023-02-08T06:32:32.064Z,9.52
2023-02-08T06:35:00.576Z,8.98
2023-02-08T06:37:28.729Z,9.25
2023-02-08T06:39:57.376Z,9.80
2023-02-08T06:42:27.156Z,8.43
2023-02-08T06:44:56.193Z,9.10
2023-02-08T06:47:26.170Z,8.25
2023-02-08T06:49:54.581Z,8.18
2023-02-08T06:52:23.181Z,7.03
2023-02-08T06:54:51.838Z,7.40
2023-02-08T06:57:20.369Z,7.50
2023-02-08T06:59:48.999Z,7.65
2023-02-08T07:02:20.229Z,7.25
2023-02-08T07:04:49.602Z,7.70
2023-02-08T07:07:19.309Z,7.65
2023-02-08T07:09:47.844Z,7.00
2023-02-08T07:12:16.189Z,6.90
2023-02-08T07:14:44.874Z,6.88
2023-02-08T07:17:13.845Z,6.88
2023-02-08T07:19:42.462Z,6.43
2023-02-08T07:22:11.155Z,6.60
2023-02-08T07:24:41.495Z,6.05
2023-02-08T07:27:12.469Z,6.32
2023-02-08T07:29:41.208Z,6.85
2023-02-08T07:32:10.492Z,6.18
2023-02-08T07:34:41.069Z,5.75
2023-02-08T07:37:09.315Z,5.82
2023-02-08T07:39:37.761Z,5.50
2023-02-08T07:42:09.599Z,5.78
2023-02-08T07:44:49.488Z,6.50
2023-02-08T07:47:17.990Z,5.95
2023-02-08T07:49:46.463Z,5.65
2023-02-08T07:52:14.724Z,5.70
2023-02-08T07:54:42.976Z,5.63
2023-02-08T07:57:11.637Z,5.50
2023-02-08T07:59:40.269Z,5.40
2023-02-08T08:02:09.999Z,5.50
2023-02-08T08:04:38.599Z,5.47
2023-02-08T08:07:07.255Z,5.90
2023-02-08T08:09:35.779Z,5.68
2023-02-08T08:12:04.682Z,5.88
2023-02-08T08:14:33.310Z,5.72
2023-02-08T08:17:01.944Z,5.75
2023-02-08T08:19:30.541Z,5.30
2023-02-08T08:21:59.229Z,5.93
2023-02-08T08:24:27.915Z,5.38
2023-02-08T08:26:56.471Z,5.88
2023-02-08T08:29:25.157Z,5.80
2023-02-08T08:31:53.813Z,5.55
2023-02-08T08:34:24.773Z,5.93
2023-02-08T08:36:53.413Z,5.40
2023-02-08T08:39:21.865Z,5.60
2023-02-08T08:41:50.800Z,5.20
2023-02-08T08:44:20.333Z,4.97
2023-02-08T08:46:48.792Z,5.10
2023-02-08T08:49:17.243Z,4.82
2023-02-08T08:51:45.646Z,5.10
2023-02-08T08:54:14.236Z,5.15
2023-02-08T08:56:42.745Z,5.25
2023-02-08T08:59:11.624Z,4.90
2023-02-08T09:01:42.643Z,5.40
2023-02-08T09:04:11.993Z,4.82
2023-02-08T09:06:40.699Z,4.80
2023-02-08T09:09:09.455Z,5.40
2023-02-08T09:11:38.086Z,5.30
2023-02-08T09:14:07.022Z,5.03
2023-02-08T09:16:35.740Z,5.05
2023-02-08T09:19:08.855Z,5.70
2023-02-08T09:21:37.780Z,5.07
2023-02-08T09:24:06.674Z,5.15
2023-02-08T09:26:35.611Z,4.95
2023-02-08T09:29:05.660Z,5.22
2023-02-08T09:31:38.294Z,4.75
2023-02-08T09:34:07.645Z,5.22
2023-02-08T09:36:39.485Z,5.70
2023-02-08T09:39:20.903Z,5.13
2023-02-08T09:42:07.213Z,6.05
2023-02-08T09:44:59.805Z,5.22
2023-02-08T09:47:36.223Z,5.18
2023-02-08T09:50:26.619Z,6.10
2023-02-08T09:53:15.469Z,5.43
2023-02-08T09:55:51.650Z,4.78
2023-02-08T09:58:25.723Z,6.25
2023-02-08T10:00:55.810Z,8.02
2023-02-08T10:03:39.152Z,12.75
2023-02-08T10:06:10.461Z,12.20
2023-02-08T10:08:39.639Z,12.70
2023-02-08T10:11:24.298Z,11.63
2023-02-08T10:14:20.175Z,10.40
2023-02-08T10:17:11.454Z,9.82
2023-02-08T10:19:53.145Z,10.13
2023-02-08T10:22:49.471Z,10.18
2023-02-08T10:25:45.723Z,10.38
2023-02-08T10:28:35.055Z,8.40
2023-02-08T10:31:30.917Z,9.45
2023-02-08T10:34:15.987Z,8.93
2023-02-08T10:36:44.932Z,8.25
2023-02-08T10:39:35.642Z,9.23
2023-02-08T10:42:18.137Z,8.52
2023-02-08T10:45:24.407Z,9.10
2023-02-08T10:47:59.146Z,7.25
2023-02-08T10:50:38.599Z,7.22
2023-02-08T10:53:11.945Z,7.97
2023-02-08T10:55:43.503Z,7.25
2023-02-08T10:58:19.359Z,7.30
2023-02-08T11:00:50.107Z,7.28
2023-02-08T11:03:25.996Z,8.23
2023-02-08T11:05:55.174Z,6.90
2023-02-08T11:08:29.164Z,6.95
2023-02-08T11:11:08.270Z,7.85
2023-02-08T11:13:43.511Z,6.72
2023-02-08T11:16:24.415Z,8.02
2023-02-08T11:18:59.382Z,6.90
2023-02-08T11:21:33.610Z,5.90
2023-02-08T11:24:29.328Z,6.95
2023-02-08T11:26:57.980Z,6.15
2023-02-08T11:29:29.775Z,6.57
2023-02-08T11:32:00.603Z,6.65
2023-02-08T11:34:39.153Z,6.20
2023-02-08T11:37:28.891Z,6.65
2023-02-08T11:39:59.671Z,6.55
2023-02-08T11:42:31.571Z,6.22
2023-02-08T11:45:00.886Z,6.22
2023-02-08T11:47:35.989Z,5.47
2023-02-08T11:50:08.274Z,5.75
2023-02-08T11:52:40.981Z,6.22
2023-02-08T11:55:25.410Z,6.30
2023-02-08T11:58:10.003Z,6.35
2023-02-08T12:00:40.655Z,5.28
2023-02-08T12:03:18.711Z,6.05
2023-02-08T12:06:32.350Z,5.90
2023-02-08T12:09:12.675Z,5.57
2023-02-08T12:11:51.002Z,5.45
2023-02-08T12:14:40.553Z,5.32
2023-02-08T12:17:24.230Z,5.78
2023-02-08T12:20:05.033Z,4.63
2023-02-08T12:22:39.862Z,5.03
2023-02-08T12:25:21.980Z,5.05
2023-02-08T12:28:41.320Z,5.13
2023-02-08T12:31:28.447Z,4.68
2023-02-08T12:34:15.001Z,4.45
2023-02-08T12:37:32.346Z,4.47
2023-02-08T12:40:37.637Z,4.53
2023-02-08T12:43:16.631Z,4.63
2023-02-08T12:46:03.313Z,4.40
2023-02-08T12:48:46.010Z,4.50
2023-02-08T12:51:35.032Z,4.65
2023-02-08T12:54:18.098Z,4.68
2023-02-08T12:57:00.262Z,4.57
2023-02-08T12:59:45.066Z,4.82
2023-02-08T13:02:22.535Z,4.00
2023-02-08T13:04:59.938Z,4.50
2023-02-08T13:07:50.803Z,4.05
2023-02-08T13:10:37.917Z,3.90
2023-02-08T13:13:36.139Z,4.15
2023-02-08T13:16:38.393Z,4.38
2023-02-08T13:19:25.065Z,4.25
2023-02-08T13:21:55.088Z,4.20
2023-02-08T13:24:37.041Z,3.85
2023-02-08T13:27:09.090Z,4.15
2023-02-08T13:29:38.997Z,4.20
2023-02-08T13:32:11.910Z,3.78
2023-02-08T13:34:45.570Z,4.00
2023-02-08T13:37:35.349Z,3.72
2023-02-08T13:40:18.652Z,3.55
2023-02-08T13:42:57.982Z,4.00
2023-02-08T13:45:31.949Z,3.50
2023-02-08T13:48:06.264Z,3.70
2023-02-08T13:50:48.485Z,3.53
2023-02-08T13:53:18.140Z,3.42
2023-02-08T13:56:11.493Z,3.30
2023-02-08T13:59:01.401Z,3.42
2023-02-08T14:01:36.133Z,3.45
2023-02-08T14:04:10.530Z,3.42
2023-02-08T14:06:50.138Z,3.88
2023-02-08T14:09:23.432Z,3.10
2023-02-08T14:14:29.535Z,3.33
2023-02-08T14:17:22.858Z,3.30
2023-02-08T14:20:06.654Z,3.35
2023-02-08T14:25:16.898Z,3.20
2023-02-08T14:28:01.189Z,3.20
2023-02-08T14:30:32.953Z,3.35
2023-02-08T14:33:07.808Z,2.97
2023-02-08T14:36:04.638Z,2.97
2023-02-08T14:38:53.138Z,3.22
2023-02-08T14:41:44.617Z,2.88
2023-02-08T14:44:46.786Z,3.42
2023-02-08T14:47:27.480Z,3.20
2023-02-08T14:50:12.596Z,2.92
2023-02-08T14:52:49.055Z,3.33
2023-02-08T14:55:26.952Z,3.25
2023-02-08T14:57:59.164Z,2.72
2023-02-08T15:00:36.333Z,3.42
2023-02-08T15:03:12.437Z,3.17
2023-02-08T15:06:16.130Z,3.13
2023-02-08T15:08:55.864Z,3.10
2023-02-08T15:11:28.423Z,3.00
2023-02-08T15:14:00.951Z,2.75
2023-02-08T15:16:48.663Z,2.92
2023-02-08T15:19:35.178Z,2.97
2023-02-08T15:22:26.175Z,2.97
2023-02-08T15:24:56.838Z,2.97
2023-02-08T15:27:28.839Z,2.75
2023-02-08T15:29:57.797Z,3.00
2023-02-08T15:32:28.848Z,3.10
2023-02-08T15:35:00.806Z,2.85
2023-02-08T15:37:35.096Z,2.80
2023-02-08T15:40:05.009Z,2.60
2023-02-08T15:42:35.062Z,2.92
2023-02-08T15:45:04.926Z,3.15
2023-02-08T15:47:40.165Z,3.13
2023-02-08T15:50:21.257Z,3.00
2023-02-08T15:52:58.018Z,3.22
2023-02-08T15:55:30.875Z,2.63
2023-02-08T15:58:28.864Z,2.60
2023-02-08T16:01:00.046Z,2.83
2023-02-08T16:03:30.074Z,2.90
2023-02-08T16:06:05.298Z,3.05
2023-02-08T16:08:36.514Z,2.90
2023-02-08T16:11:12.973Z,2.80
2023-02-08T16:13:46.701Z,2.85
2023-02-08T16:16:41.182Z,2.70
2023-02-08T16:19:25.246Z,2.60
2023-02-08T16:22:16.982Z,2.80
2023-02-08T16:24:47.309Z,2.50
2023-02-08T16:27:25.951Z,2.85
2023-02-08T16:29:54.795Z,2.72
2023-02-08T16:32:33.911Z,2.72
2023-02-08T16:35:20.578Z,2.90
2023-02-08T16:37:55.549Z,2.55
2023-02-08T16:40:50.102Z,2.95
2023-02-08T16:45:46.827Z,2.60
2023-02-08T16:48:35.362Z,2.80
2023-02-08T16:51:07.398Z,2.78
2023-02-08T16:53:42.441Z,2.75
2023-02-08T16:56:11.932Z,2.60
2023-02-08T16:58:40.338Z,3.03
2023-02-08T17:01:14.492Z,3.00
2023-02-08T17:03:43.433Z,3.13
2023-02-08T17:06:33.333Z,2.83
2023-02-08T17:09:03.263Z,2.83
2023-02-08T17:11:32.268Z,2.83
2023-02-08T17:14:00.764Z,3.03
2023-02-08T17:16:31.660Z,3.00
2023-02-08T17:19:01.485Z,2.80
2023-02-08T17:21:29.924Z,2.60
2023-02-08T17:23:58.500Z,2.60
2023-02-08T17:26:37.924Z,2.83
2023-02-08T17:29:07.237Z,2.78
2023-02-08T17:31:36.141Z,2.60
2023-02-08T17:34:04.846Z,2.60
2023-02-08T17:36:35.915Z,2.80
2023-02-08T17:39:06.175Z,2.80
2023-02-08T17:41:35.911Z,2.65
2023-02-08T17:44:04.557Z,2.50
2023-02-08T17:46:33.219Z,2.60
2023-02-08T17:49:02.087Z,2.60
2023-02-08T17:51:31.227Z,2.70
2023-02-08T17:54:02.951Z,2.42
2023-02-08T17:56:35.751Z,2.70
2023-02-08T17:59:05.756Z,2.43
2023-02-08T18:01:35.379Z,2.75
2023-02-08T18:04:03.761Z,2.80
2023-02-08T18:06:32.203Z,2.40
2023-02-08T18:09:00.972Z,2.53
2023-02-08T18:11:29.514Z,2.50
2023-02-08T18:13:57.756Z,2.72
2023-02-08T18:16:28.243Z,2.55
2023-02-08T18:18:59.538Z,2.70
2023-02-08T18:21:33.174Z,2.70
2023-02-08T18:24:03.175Z,2.60
2023-02-08T18:26:34.770Z,2.60
2023-02-08T18:29:04.538Z,2.90
2023-02-08T18:31:33.511Z,2.60
2023-02-08T18:34:02.128Z,2.70
2023-02-08T18:36:31.118Z,2.35
2023-02-08T18:38:59.864Z,2.60
2023-02-08T18:41:30.855Z,2.45
2023-02-08T18:44:00.342Z,2.75
2023-02-08T18:46:29.873Z,2.67
2023-02-08T18:48:58.628Z,2.50
2023-02-08T18:51:28.133Z,2.70
2023-02-08T18:53:57.039Z,2.53
2023-02-08T18:56:27.817Z,2.90
2023-02-08T18:59:00.189Z,2.38
2023-02-08T19:01:28.862Z,2.50
2023-02-08T19:03:58.358Z,2.40
2023-02-08T19:06:29.043Z,2.72
2023-02-08T19:08:59.895Z,2.67
2023-02-08T19:11:34.532Z,2.47
2023-02-08T19:14:05.851Z,2.58
2023-02-08T19:16:36.121Z,2.78
2023-02-08T19:19:06.926Z,2.15
2023-02-08T19:21:35.868Z,2.25
2023-02-08T19:24:04.615Z,2.72
2023-02-08T19:26:40.271Z,2.80
2023-02-08T19:29:13.716Z,2.55
2023-02-08T19:31:43.153Z,2.40
2023-02-08T19:34:13.500Z,2.33
2023-02-08T19:36:46.748Z,2.60
2023-02-08T19:39:17.608Z,2.70
2023-02-08T19:41:46.646Z,2.45
2023-02-08T19:44:18.803Z,2.40
2023-02-08T19:46:49.452Z,2.60
2023-02-08T19:49:19.090Z,2.47
2023-02-08T19:51:49.159Z,2.58
2023-02-08T19:54:19.665Z,2.60
2023-02-08T19:56:50.704Z,2.88
2023-02-08T19:59:22.278Z,2.35
2023-02-08T20:01:54.067Z,2.80
2023-02-08T20:04:23.885Z,2.55
2023-02-08T20:06:53.960Z,2.55
2023-02-08T20:09:22.738Z,2.03
2023-02-08T20:12:00.074Z,2.60
2023-02-08T20:14:31.444Z,2.53
2023-02-08T20:17:01.633Z,2.55
2023-02-08T20:19:30.370Z,2.70
2023-02-08T20:21:58.857Z,2.50
2023-02-08T20:24:27.669Z,2.60
2023-02-08T20:26:56.068Z,2.20
2023-02-08T20:29:25.545Z,2.90
2023-02-08T20:31:58.267Z,2.47
2023-02-08T20:34:26.937Z,2.53
2023-02-08T20:37:06.779Z,2.35
2023-02-08T20:39:38.166Z,2.58
2023-02-08T20:42:06.925Z,2.20
2023-02-08T20:44:36.656Z,2.47
2023-02-08T20:47:05.156Z,2.63
2023-02-08T20:49:33.601Z,2.40
2023-02-08T20:52:02.098Z,2.40
2023-02-08T20:54:31.200Z,2.60
2023-02-08T20:56:59.699Z,2.53
2023-02-08T20:59:28.273Z,2.40
2023-02-08T21:01:56.983Z,2.55
2023-02-08T21:04:26.704Z,2.60
2023-02-08T21:06:55.228Z,2.70
2023-02-08T21:09:24.189Z,2.70
2023-02-08T21:11:53.404Z,2.83
2023-02-08T21:14:23.725Z,2.60
2023-02-08T21:16:58.942Z,2.97
2023-02-08T21:19:29.818Z,2.35
2023-02-08T21:22:00.851Z,2.65
2023-02-08T21:24:31.222Z,2.63
2023-02-08T21:27:00.234Z,2.65
2023-02-08T21:29:29.724Z,2.92
2023-02-08T21:31:59.048Z,2.70
2023-02-08T21:34:27.816Z,2.75
2023-02-08T21:36:56.404Z,2.50
2023-02-08T21:39:25.269Z,2.70
2023-02-08T21:41:55.696Z,2.40
2023-02-08T21:44:24.272Z,3.00
2023-02-08T21:46:52.776Z,3.03
2023-02-08T21:49:39.833Z,2.90
2023-02-08T21:52:28.336Z,2.75
2023-02-08T21:54:57.230Z,2.50
2023-02-08T21:57:29.329Z,2.92
2023-02-08T21:59:59.673Z,2.80
2023-02-08T22:02:30.262Z,3.00
2023-02-08T22:05:01.174Z,2.47
2023-02-08T22:07:39.630Z,2.90
2023-02-08T22:10:10.141Z,2.75
2023-02-08T22:12:41.302Z,2.63
2023-02-08T22:15:14.816Z,2.83
2023-02-08T22:17:43.687Z,2.80
2023-02-08T22:20:15.274Z,2.85
2023-02-08T22:22:43.851Z,2.70
2023-02-08T22:25:12.801Z,3.30
2023-02-08T22:27:41.906Z,2.60
2023-02-08T22:30:12.904Z,2.88
2023-02-08T22:32:43.603Z,2.80
2023-02-08T22:35:13.439Z,2.95
2023-02-08T22:37:43.103Z,2.95
2023-02-08T22:40:13.204Z,2.78
2023-02-08T22:42:42.654Z,2.58
2023-02-08T22:45:12.599Z,3.00
2023-02-08T22:47:41.198Z,2.67
2023-02-08T22:50:10.042Z,2.85
2023-02-08T22:52:38.142Z,2.70
2023-02-08T22:55:06.987Z,3.03
2023-02-08T22:57:36.077Z,2.85
2023-02-08T23:00:07.556Z,3.10
2023-02-08T23:02:35.972Z,2.75
2023-02-08T23:05:04.134Z,2.97
2023-02-08T23:07:32.566Z,2.70
2023-02-08T23:10:00.763Z,2.80
2023-02-08T23:12:28.736Z,2.78
2023-02-08T23:14:56.962Z,2.70
2023-02-08T23:17:24.924Z,2.70
2023-02-08T23:19:53.306Z,3.00
2023-02-08T23:22:21.052Z,2.90
2023-02-08T23:24:49.136Z,2.90
2023-02-08T23:27:17.066Z,2.80
2023-02-08T23:29:45.110Z,3.13
2023-02-08T23:32:13.032Z,2.70
2023-02-08T23:34:40.906Z,2.90
2023-02-08T23:37:08.750Z,3.20
2023-02-08T23:39:36.633Z,2.90
2023-02-08T23:42:04.843Z,2.80
2023-02-08T23:44:32.781Z,2.80
2023-02-08T23:47:00.772Z,2.70
2023-02-08T23:49:28.676Z,2.90
2023-02-08T23:51:56.740Z,3.10
2023-02-08T23:54:25.319Z,2.83
2023-02-08T23:56:53.260Z,2.92
2023-02-08T23:59:21.828Z,3.05
